createdAt,value
2019-02-14T00:00:45.571Z,0.03
2019-02-14T00:03:14.285Z,0.05
2019-02-14T00:05:43.006Z,0.11
2019-02-14T00:08:30.920Z,0.19
2019-02-14T00:10:59.682Z,-0.02
2019-02-14T00:13:28.377Z,0.13
2019-02-14T00:15:57.027Z,0.18
2019-02-14T00:18:25.706Z,0.04
2019-02-14T00:20:54.367Z,0.02
2019-02-14T00:23:23.051Z,0.13
2019-02-14T00:25:51.709Z,0.01
2019-02-14T00:28:20.346Z,-0.04
2019-02-14T00:30:49.091Z,0.08
2019-02-14T00:33:17.768Z,0.18
2019-02-14T00:35:46.462Z,0.05
2019-02-14T00:38:15.108Z,-0.04
2019-02-14T00:41:03.036Z,-0.02
2019-02-14T00:43:50.895Z,-0.14
2019-02-14T00:46:19.487Z,-0.21
2019-02-14T00:48:48.109Z,-0.20
2019-02-14T00:51:16.784Z,-0.22
2019-02-14T00:53:45.398Z,-0.12
2019-02-14T00:56:14.029Z,0.05
2019-02-14T00:58:42.632Z,-0.07
2019-02-14T01:01:11.216Z,-0.26
2019-02-14T01:03:58.954Z,-0.28
2019-02-14T01:06:46.897Z,-0.26
2019-02-14T01:11:50.186Z,-0.26
2019-02-14T01:14:18.879Z,-0.41
2019-02-14T01:17:06.825Z,-0.48
2019-02-14T01:19:35.615Z,-0.39
2019-02-14T01:22:23.455Z,-0.31
2019-02-14T01:24:52.159Z,-0.38
2019-02-14T01:27:20.792Z,-0.54
2019-02-14T01:29:49.495Z,-0.65
2019-02-14T01:32:18.300Z,-0.67
2019-02-14T01:34:46.971Z,-0.62
2019-02-14T01:37:15.683Z,-0.49
2019-02-14T01:40:03.602Z,-0.60
2019-02-14T01:42:51.552Z,-0.73
2019-02-14T01:45:40.782Z,-0.75
2019-02-14T01:48:30.075Z,-0.77
2019-02-14T01:50:58.785Z,-0.84
2019-02-14T01:53:27.412Z,-0.65
2019-02-14T01:55:55.987Z,-0.53
2019-02-14T01:58:24.614Z,-0.52
2019-02-14T02:03:46.874Z,-0.55
2019-02-14T02:06:34.845Z,-0.63
2019-02-14T02:12:11.745Z,-0.55
2019-02-14T02:14:40.383Z,-0.50
2019-02-14T02:17:28.278Z,-0.41
2019-02-14T02:20:16.183Z,-0.51
2019-02-14T02:23:04.201Z,-0.53
2019-02-14T02:25:32.884Z,-0.65
2019-02-14T02:28:01.523Z,-0.71
2019-02-14T02:30:30.147Z,-0.78
2019-02-14T02:33:17.958Z,-0.81
2019-02-14T02:35:46.529Z,-0.83
2019-02-14T02:38:15.229Z,-0.85
2019-02-14T02:40:43.926Z,-0.92
2019-02-14T02:43:12.580Z,-0.98
2019-02-14T02:45:41.258Z,-1.10
2019-02-14T02:48:09.922Z,-1.16
2019-02-14T02:50:38.631Z,-1.27
2019-02-14T02:53:07.191Z,-1.30
2019-02-14T02:55:35.753Z,-1.32
2019-02-14T02:58:04.433Z,-1.32
2019-02-14T03:00:33.114Z,-1.31
2019-02-14T03:03:20.996Z,-1.29
2019-02-14T03:06:10.887Z,-1.31
2019-02-14T03:08:39.189Z,-1.37
2019-02-14T03:11:07.696Z,-1.23
2019-02-14T03:13:36.386Z,-1.29
2019-02-14T03:16:05.049Z,-1.08
2019-02-14T03:18:53.013Z,-1.22
2019-02-14T03:21:40.927Z,-1.28
2019-02-14T03:24:09.661Z,-1.39
2019-02-14T03:26:38.317Z,-1.45
2019-02-14T03:29:06.964Z,-1.46
2019-02-14T03:31:35.664Z,-1.42
2019-02-14T03:34:04.348Z,-1.35
2019-02-14T03:36:52.218Z,-1.11
2019-02-14T03:42:35.080Z,-1.31
2019-02-14T03:48:11.886Z,-1.37
2019-02-14T03:50:40.587Z,-1.37
2019-02-14T03:53:28.522Z,-1.44
2019-02-14T03:55:57.139Z,-1.49
2019-02-14T03:58:25.715Z,-1.54
2019-02-14T04:01:13.535Z,-1.53
2019-02-14T04:03:42.227Z,-1.56
2019-02-14T04:06:30.168Z,-1.57
2019-02-14T04:09:18.234Z,-1.58
2019-02-14T04:12:06.108Z,-1.49
2019-02-14T04:14:54.181Z,-1.39
2019-02-14T04:17:41.955Z,-1.48
2019-02-14T04:20:50.392Z,-1.51
2019-02-14T04:23:38.207Z,-1.33
2019-02-14T04:26:06.782Z,-1.17
2019-02-14T04:28:35.414Z,-1.42
2019-02-14T04:31:04.093Z,-1.47
2019-02-14T04:33:32.812Z,-1.49
2019-02-14T04:36:20.651Z,-1.50
2019-02-14T04:39:08.595Z,-1.21
2019-02-14T04:41:56.510Z,-1.13
2019-02-14T04:44:44.401Z,-1.38
2019-02-14T04:47:32.170Z,-1.44
2019-02-14T04:50:19.993Z,-1.42
2019-02-14T04:53:07.950Z,-1.44
2019-02-14T04:55:55.773Z,-1.47
2019-02-14T04:58:43.598Z,-1.46
2019-02-14T05:01:31.410Z,-1.41
2019-02-14T05:04:19.335Z,-1.19
2019-02-14T05:06:48.104Z,-1.13
2019-02-14T05:09:16.869Z,-1.30
2019-02-14T05:11:45.520Z,-1.38
2019-02-14T05:14:14.204Z,-1.41
2019-02-14T05:16:42.966Z,-1.45
2019-02-14T05:19:11.627Z,-1.47
2019-02-14T05:21:40.214Z,-1.48
2019-02-14T05:24:08.836Z,-1.48
2019-02-14T05:26:37.504Z,-1.45
2019-02-14T05:29:06.076Z,-1.36
2019-02-14T05:31:34.765Z,-1.38
2019-02-14T05:34:03.447Z,-1.43
2019-02-14T05:36:32.126Z,-1.30
2019-02-14T05:39:00.819Z,-1.13
2019-02-14T05:41:29.510Z,-1.11
2019-02-14T05:43:58.090Z,-1.07
2019-02-14T05:46:26.645Z,-1.15
2019-02-14T05:48:55.272Z,-1.18
2019-02-14T05:51:43.146Z,-1.18
2019-02-14T05:54:11.842Z,-1.10
2019-02-14T05:56:40.552Z,-1.17
2019-02-14T05:59:28.330Z,-1.23
2019-02-14T06:02:16.147Z,-1.23
2019-02-14T06:05:04.057Z,-1.21
2019-02-14T06:07:32.699Z,-1.25
2019-02-14T06:10:01.330Z,-1.23
2019-02-14T06:12:30.049Z,-1.23
2019-02-14T06:14:58.724Z,-1.23
2019-02-14T06:17:27.430Z,-1.22
2019-02-14T06:20:15.354Z,-1.21
2019-02-14T06:22:44.049Z,-1.15
2019-02-14T06:25:52.487Z,-1.00
2019-02-14T06:28:21.085Z,-1.02
2019-02-14T06:30:49.792Z,-1.12
2019-02-14T06:33:18.423Z,-1.17
2019-02-14T06:35:47.023Z,-1.19
2019-02-14T06:38:15.696Z,-1.22
2019-02-14T06:40:44.405Z,-1.20
2019-02-14T06:43:12.985Z,-1.17
2019-02-14T06:46:00.845Z,-1.17
2019-02-14T06:48:29.529Z,-1.19
2019-02-14T06:50:58.237Z,-1.12
2019-02-14T06:53:26.894Z,-1.08
2019-02-14T06:55:55.594Z,-1.01
2019-02-14T06:58:43.546Z,-0.99
2019-02-14T07:01:31.416Z,-1.04
2019-02-14T07:04:19.389Z,-0.89
2019-02-14T07:07:07.311Z,-0.84
2019-02-14T07:09:35.974Z,-0.95
2019-02-14T07:14:39.079Z,-1.03
2019-02-14T07:17:26.887Z,-0.99
2019-02-14T07:20:14.782Z,-0.92
2019-02-14T07:23:02.616Z,-0.91
2019-02-14T07:25:50.474Z,-0.95
2019-02-14T07:28:38.274Z,-0.99
2019-02-14T07:31:46.773Z,-0.94
2019-02-14T07:34:34.615Z,-0.91
2019-02-14T07:37:26.856Z,-0.85
2019-02-14T07:39:52.964Z,-0.79
2019-02-14T07:42:40.769Z,-0.74
2019-02-14T07:45:49.250Z,-0.60
2019-02-14T07:48:37.123Z,-0.53
2019-02-14T07:51:24.874Z,-0.51
2019-02-14T07:54:12.634Z,-0.45
2019-02-14T07:57:00.557Z,-0.34
2019-02-14T07:59:29.254Z,-0.19
2019-02-14T08:02:17.155Z,0.08
2019-02-14T08:04:45.854Z,0.35
2019-02-14T08:07:14.563Z,0.82
2019-02-14T08:10:02.452Z,1.29
2019-02-14T08:12:50.269Z,1.79
2019-02-14T08:15:18.910Z,2.33
2019-02-14T08:17:47.706Z,2.90
2019-02-14T08:20:35.634Z,3.26
2019-02-14T08:23:23.495Z,3.56
2019-02-14T08:26:11.410Z,3.56
2019-02-14T08:28:40.035Z,3.85
2019-02-14T08:31:27.906Z,4.22
2019-02-14T08:34:15.686Z,4.44
2019-02-14T08:36:44.425Z,4.31
2019-02-14T08:39:32.348Z,4.20
2019-02-14T08:42:01.048Z,4.07
2019-02-14T08:44:29.678Z,4.26
2019-02-14T08:47:17.616Z,4.33
2019-02-14T08:50:06.635Z,4.44
2019-02-14T08:52:54.527Z,4.46
2019-02-14T08:55:42.445Z,4.61
2019-02-14T08:58:30.275Z,4.51
2019-02-14T09:00:58.959Z,4.54
2019-02-14T09:03:27.552Z,4.83
2019-02-14T09:06:15.501Z,5.09
2019-02-14T09:08:44.286Z,5.00
2019-02-14T09:11:32.222Z,5.08
2019-02-14T09:14:20.128Z,5.20
2019-02-14T09:17:08.013Z,5.32
2019-02-14T09:19:36.718Z,5.48
2019-02-14T09:22:05.269Z,5.89
2019-02-14T09:24:33.951Z,6.13
2019-02-14T09:27:21.790Z,6.16
2019-02-14T09:30:09.798Z,6.19
2019-02-14T09:32:38.449Z,6.37
2019-02-14T09:35:46.939Z,5.90
2019-02-14T09:38:15.595Z,5.72
2019-02-14T09:40:44.217Z,5.50
2019-02-14T09:43:12.886Z,5.58
2019-02-14T09:45:41.531Z,5.80
2019-02-14T09:48:29.301Z,6.08
2019-02-14T09:50:57.980Z,6.40
2019-02-14T09:53:26.631Z,6.65
2019-02-14T09:55:55.325Z,6.87
2019-02-14T09:58:23.960Z,7.00
2019-02-14T10:00:52.539Z,7.27
2019-02-14T10:03:21.192Z,7.57
2019-02-14T10:05:49.865Z,7.67
2019-02-14T10:08:18.571Z,7.89
2019-02-14T10:11:06.318Z,7.90
2019-02-14T10:13:34.989Z,8.48
2019-02-14T10:16:03.635Z,8.50
2019-02-14T10:18:32.248Z,8.48
2019-02-14T10:21:00.894Z,8.64
2019-02-14T10:23:29.541Z,8.49
2019-02-14T10:25:58.260Z,8.60
2019-02-14T10:28:26.950Z,8.78
2019-02-14T10:31:14.897Z,8.85
2019-02-14T10:33:43.519Z,9.12
2019-02-14T10:36:12.213Z,9.91
2019-02-14T10:38:40.863Z,10.62
2019-02-14T10:41:29.353Z,11.01
2019-02-14T10:43:58.934Z,11.19
2019-02-14T10:46:27.620Z,11.31
2019-02-14T10:48:56.312Z,11.29
2019-02-14T10:51:24.968Z,11.08
2019-02-14T10:53:53.607Z,11.03
2019-02-14T10:56:22.352Z,11.01
2019-02-14T10:58:50.982Z,10.87
2019-02-14T11:01:19.686Z,10.83
2019-02-14T11:03:48.318Z,10.69
2019-02-14T11:06:17.000Z,10.71
2019-02-14T11:08:45.672Z,10.80
2019-02-14T11:11:14.310Z,10.83
2019-02-14T11:13:42.947Z,10.61
2019-02-14T11:16:30.849Z,10.97
2019-02-14T11:19:18.808Z,10.99
2019-02-14T11:22:06.761Z,11.05
2019-02-14T11:24:35.399Z,11.42
2019-02-14T11:27:04.496Z,11.54
2019-02-14T11:29:33.259Z,11.57
2019-02-14T11:32:21.114Z,11.46
2019-02-14T11:35:09.041Z,11.46
2019-02-14T11:37:37.726Z,11.62
2019-02-14T11:40:46.202Z,11.68
2019-02-14T11:43:14.922Z,11.33
2019-02-14T11:45:43.615Z,11.62
2019-02-14T11:48:12.317Z,11.83
2019-02-14T11:51:00.167Z,11.57
2019-02-14T11:53:29.387Z,11.59
2019-02-14T11:55:59.163Z,11.53
2019-02-14T11:58:27.855Z,11.99
2019-02-14T12:00:56.521Z,12.17
2019-02-14T12:03:25.202Z,12.13
2019-02-14T12:05:53.850Z,12.34
2019-02-14T12:08:22.526Z,12.39
2019-02-14T12:10:51.224Z,12.07
2019-02-14T12:13:19.953Z,11.89
2019-02-14T12:15:48.721Z,11.68
2019-02-14T12:18:17.364Z,11.65
2019-02-14T12:20:47.927Z,12.07
2019-02-14T12:23:16.427Z,12.17
2019-02-14T12:25:45.333Z,12.30
2019-02-14T12:28:14.044Z,12.45
2019-02-14T12:30:42.770Z,12.56
2019-02-14T12:33:11.389Z,12.33
2019-02-14T12:35:40.037Z,11.99
2019-02-14T12:38:08.730Z,12.11
2019-02-14T12:40:37.455Z,12.20
2019-02-14T12:43:25.606Z,12.42
2019-02-14T12:45:54.296Z,12.54
2019-02-14T12:48:42.093Z,12.85
2019-02-14T12:51:10.786Z,12.83
2019-02-14T12:53:58.791Z,12.73
2019-02-14T12:56:27.530Z,12.66
2019-02-14T12:59:15.365Z,12.61
2019-02-14T13:01:44.007Z,12.52
2019-02-14T13:04:31.845Z,12.57
2019-02-14T13:07:20.455Z,12.40
2019-02-14T13:09:49.213Z,12.52
2019-02-14T13:12:37.004Z,12.61
2019-02-14T13:15:45.460Z,12.84
2019-02-14T13:18:14.108Z,13.23
2019-02-14T13:20:42.854Z,13.33
2019-02-14T13:23:11.480Z,13.38
2019-02-14T13:25:40.137Z,13.03
2019-02-14T13:28:08.852Z,13.25
2019-02-14T13:30:56.678Z,13.76
2019-02-14T13:33:25.352Z,14.22
2019-02-14T13:36:13.273Z,14.36
2019-02-14T13:38:41.913Z,14.65
2019-02-14T13:41:10.616Z,14.92
2019-02-14T13:43:58.556Z,15.06
2019-02-14T13:46:27.133Z,14.69
2019-02-14T13:48:55.828Z,15.21
2019-02-14T13:51:24.487Z,15.02
2019-02-14T13:53:53.195Z,15.89
2019-02-14T13:56:21.880Z,15.75
2019-02-14T13:58:50.561Z,16.02
2019-02-14T14:01:19.141Z,16.37
2019-02-14T14:03:47.812Z,16.08
2019-02-14T14:06:16.463Z,15.70
2019-02-14T14:08:45.185Z,15.65
2019-02-14T14:11:13.825Z,16.03
2019-02-14T14:13:42.518Z,16.42
2019-02-14T14:16:30.392Z,16.90
2019-02-14T14:19:18.147Z,16.86
2019-02-14T14:22:06.121Z,16.70
2019-02-14T14:24:34.845Z,16.36
2019-02-14T14:27:03.549Z,16.17
2019-02-14T14:29:32.259Z,16.41
2019-02-14T14:32:00.861Z,16.36
2019-02-14T14:34:29.509Z,16.09
2019-02-14T14:36:58.204Z,16.10
2019-02-14T14:39:26.788Z,15.54
2019-02-14T14:41:55.477Z,16.13
2019-02-14T14:49:52.354Z,16.49
2019-02-14T14:52:40.271Z,16.24
2019-02-14T14:55:08.974Z,15.72
2019-02-14T14:57:37.626Z,16.35
2019-02-14T15:00:27.002Z,16.51
2019-02-14T15:03:14.810Z,16.43
2019-02-14T15:05:43.359Z,16.46
2019-02-14T15:08:31.160Z,16.25
2019-02-14T15:10:59.827Z,16.17
2019-02-14T15:13:28.540Z,16.12
2019-02-14T15:15:57.249Z,16.36
2019-02-14T15:21:19.385Z,16.15
2019-02-14T15:23:48.098Z,16.17
2019-02-14T15:26:16.679Z,16.32
2019-02-14T15:28:45.380Z,16.32
2019-02-14T15:31:14.028Z,16.18
2019-02-14T15:33:42.607Z,16.45
2019-02-14T15:36:11.303Z,16.85
2019-02-14T15:38:59.194Z,17.16
2019-02-14T15:41:27.868Z,17.74
2019-02-14T15:43:56.554Z,18.12
2019-02-14T15:46:25.149Z,18.15
2019-02-14T15:48:53.798Z,18.52
2019-02-14T15:51:22.498Z,18.64
2019-02-14T15:53:51.149Z,18.36
2019-02-14T15:56:39.079Z,17.65
2019-02-14T15:59:28.842Z,16.70
2019-02-14T16:01:57.348Z,15.59
2019-02-14T16:04:26.682Z,14.93
2019-02-14T16:07:17.547Z,14.28
2019-02-14T16:09:45.932Z,13.90
2019-02-14T16:12:33.865Z,13.58
2019-02-14T16:15:21.713Z,13.00
2019-02-14T16:17:50.424Z,12.46
2019-02-14T16:20:19.913Z,12.43
2019-02-14T16:22:49.429Z,12.06
2019-02-14T16:25:18.098Z,11.76
2019-02-14T16:27:48.283Z,11.26
2019-02-14T16:30:17.275Z,10.96
2019-02-14T16:32:45.960Z,10.62
2019-02-14T16:35:14.650Z,10.42
2019-02-14T16:38:02.506Z,10.58
2019-02-14T16:40:38.281Z,10.42
2019-02-14T16:43:01.602Z,10.38
2019-02-14T16:45:30.298Z,10.33
2019-02-14T16:47:58.945Z,10.14
2019-02-14T16:50:27.625Z,9.93
2019-02-14T16:52:56.306Z,9.72
2019-02-14T16:55:24.916Z,9.47
2019-02-14T16:57:53.590Z,9.35
2019-02-14T17:00:22.234Z,9.12
2019-02-14T17:02:50.945Z,8.81
2019-02-14T17:05:19.574Z,8.75
2019-02-14T17:08:07.504Z,8.56
2019-02-14T17:10:43.635Z,8.38
2019-02-14T17:13:31.372Z,8.19
2019-02-14T17:16:19.235Z,8.09
2019-02-14T17:18:47.886Z,7.96
2019-02-14T17:21:35.760Z,8.18
2019-02-14T17:24:23.717Z,8.23
2019-02-14T17:27:06.935Z,7.84
2019-02-14T17:29:36.657Z,7.50
2019-02-14T17:32:05.574Z,7.37
2019-02-14T17:34:34.268Z,7.27
2019-02-14T17:37:22.158Z,7.25
2019-02-14T17:42:45.530Z,7.09
2019-02-14T17:45:33.472Z,7.06
2019-02-14T17:48:02.177Z,7.14
2019-02-14T17:50:30.824Z,6.87
2019-02-14T17:52:59.445Z,6.68
2019-02-14T17:55:47.264Z,6.55
2019-02-14T18:01:09.625Z,6.69
2019-02-14T18:03:57.657Z,6.49
2019-02-14T18:06:45.506Z,6.41
2019-02-14T18:09:14.887Z,6.54
2019-02-14T18:11:43.704Z,6.52
2019-02-14T18:14:12.921Z,6.38
2019-02-14T18:19:55.288Z,6.37
2019-02-14T18:22:43.164Z,6.41
2019-02-14T18:25:51.615Z,6.32
2019-02-14T18:31:13.954Z,6.02
2019-02-14T18:33:42.600Z,6.04
2019-02-14T18:36:11.285Z,6.08
2019-02-14T18:38:39.927Z,6.02
2019-02-14T18:41:08.562Z,5.93
2019-02-14T18:43:37.258Z,5.97
2019-02-14T18:46:05.953Z,5.81
2019-02-14T18:48:53.908Z,5.70
2019-02-14T18:51:41.789Z,5.64
2019-02-14T18:54:10.488Z,5.66
2019-02-14T18:56:58.305Z,5.65
2019-02-14T18:59:46.087Z,5.47
2019-02-14T19:02:15.623Z,5.39
2019-02-14T19:05:03.939Z,5.32
2019-02-14T19:07:52.052Z,5.50
2019-02-14T19:10:40.397Z,5.35
2019-02-14T19:13:28.279Z,5.22
2019-02-14T19:15:56.869Z,5.19
2019-02-14T19:18:25.526Z,5.16
2019-02-14T19:20:54.283Z,5.12
2019-02-14T19:23:24.269Z,5.12
2019-02-14T19:25:53.277Z,5.11
2019-02-14T19:31:17.128Z,4.99
2019-02-14T19:34:04.941Z,4.96
2019-02-14T19:36:33.667Z,4.93
2019-02-14T19:41:51.696Z,4.87
2019-02-14T19:44:20.329Z,4.88
2019-02-14T19:47:08.200Z,4.78
2019-02-14T19:49:36.855Z,4.73
2019-02-14T19:52:05.468Z,4.78
2019-02-14T19:54:53.306Z,4.83
2019-02-14T19:57:22.034Z,4.65
2019-02-14T20:00:09.932Z,4.52
2019-02-14T20:03:18.446Z,4.52
2019-02-14T20:06:06.295Z,4.61
2019-02-14T20:08:34.987Z,4.68
2019-02-14T20:14:10.789Z,4.56
2019-02-14T20:16:58.599Z,4.27
2019-02-14T20:19:27.275Z,4.32
2019-02-14T20:21:55.987Z,4.07
2019-02-14T20:24:24.548Z,3.89
2019-02-14T20:27:12.537Z,3.92
2019-02-14T20:30:00.749Z,3.86
2019-02-14T20:32:48.689Z,3.96
2019-02-14T20:35:37.134Z,3.85
2019-02-14T20:38:25.696Z,3.81
2019-02-14T20:41:13.418Z,3.82
2019-02-14T20:44:01.523Z,3.99
2019-02-14T20:46:50.101Z,3.87
2019-02-14T20:49:18.971Z,4.02
2019-02-14T20:52:06.910Z,3.86
2019-02-14T20:54:35.600Z,3.69
2019-02-14T20:57:23.553Z,3.57
2019-02-14T21:05:35.216Z,3.58
2019-02-14T21:08:04.344Z,3.77
2019-02-14T21:10:52.494Z,3.81
2019-02-14T21:13:22.816Z,3.79
2019-02-14T21:15:51.506Z,3.61
2019-02-14T21:18:39.408Z,3.48
2019-02-14T21:26:49.431Z,3.34
2019-02-14T21:29:37.266Z,3.26
2019-02-14T21:32:25.123Z,3.23
2019-02-14T21:35:13.100Z,3.21
2019-02-14T21:37:43.599Z,3.19
2019-02-14T21:40:52.203Z,3.21
2019-02-14T21:43:40.100Z,3.30
2019-02-14T21:46:08.795Z,3.13
2019-02-14T21:48:39.366Z,3.03
2019-02-14T21:51:27.269Z,3.03
2019-02-14T21:54:17.360Z,2.99
2019-02-14T21:59:53.648Z,2.96
2019-02-14T22:02:41.499Z,3.16
2019-02-14T22:05:50.038Z,3.40
2019-02-14T22:11:27.421Z,2.88
2019-02-14T22:14:17.035Z,2.76
2019-02-14T22:17:04.939Z,2.96
2019-02-14T22:19:52.814Z,3.21
2019-02-14T22:22:40.649Z,2.91
2019-02-14T22:25:50.481Z,2.72
2019-02-14T22:28:21.046Z,2.67
2019-02-14T22:31:08.993Z,2.53
2019-02-14T22:33:37.682Z,2.69
2019-02-14T22:36:46.106Z,2.74
2019-02-14T22:39:33.980Z,2.68
2019-02-14T22:42:02.479Z,2.56
2019-02-14T22:44:50.296Z,2.52
2019-02-14T22:47:18.991Z,2.55
2019-02-14T22:50:06.809Z,2.57
2019-02-14T22:52:54.767Z,2.37
2019-02-14T22:55:42.688Z,2.25
2019-02-14T22:58:11.378Z,2.28
2019-02-14T23:01:19.815Z,2.32
2019-02-14T23:04:07.667Z,2.45
2019-02-14T23:06:55.629Z,2.32
2019-02-14T23:10:04.111Z,2.25
2019-02-14T23:18:01.771Z,2.38
2019-02-14T23:20:30.480Z,2.23
2019-02-14T23:22:59.102Z,2.08
2019-02-14T23:25:27.751Z,1.96
2019-02-14T23:28:15.715Z,1.94
2019-02-14T23:31:03.549Z,2.10
2019-02-14T23:36:12.691Z,2.00
2019-02-14T23:38:41.320Z,2.02
2019-02-14T23:41:29.181Z,2.07
2019-02-14T23:43:57.786Z,2.07
2019-02-14T23:46:45.647Z,2.00
2019-02-14T23:49:14.257Z,1.94
2019-02-14T23:52:01.949Z,1.96
2019-02-14T23:54:49.827Z,2.05
2019-02-14T23:57:37.606Z,2.14
